Time;durP1;ratioP1;P1;durP2;ratioP2;P2;SDS_P1;SDS_P2;PMS_P1;PMS_P2;Temp;Humidity;BMP_temperature;BMP_pressure;BME280_temperature;BME280_humidity;BME280_pressure;Samples;Min_cycle;Max_cycle;Signal;HPM_P1;HPM_P2
2020/12/25 00:00:19;;;;;;;8.20;2.07;;;3.00;99.90;;;;;;5056757;28;20028;-70
2020/12/25 00:02:45;;;;;;;3.27;1.97;;;3.00;99.90;;;;;;5057124;28;20024;-69
2020/12/25 00:05:10;;;;;;;4.67;2.10;;;3.00;99.90;;;;;;5056784;28;20036;-69
2020/12/25 00:07:36;;;;;;;3.33;2.47;;;2.90;99.90;;;;;;5056396;28;20025;-68
2020/12/25 00:10:03;;;;;;;3.67;2.40;;;3.00;99.90;;;;;;5056348;28;20381;-68
2020/12/25 00:12:28;;;;;;;4.10;2.33;;;3.00;99.90;;;;;;5056576;28;20025;-68
2020/12/25 00:14:54;;;;;;;4.63;2.50;;;3.10;99.90;;;;;;5056381;28;20082;-68
2020/12/25 00:17:19;;;;;;;6.17;3.20;;;3.10;99.90;;;;;;5056240;28;20036;-67
2020/12/25 00:19:45;;;;;;;9.57;6.80;;;3.10;99.90;;;;;;5054701;28;20033;-67
2020/12/25 00:22:11;;;;;;;16.40;11.47;;;3.10;99.90;;;;;;5056382;28;20436;-68
2020/12/25 00:24:36;;;;;;;11.63;6.37;;;3.10;99.90;;;;;;5056222;28;20419;-67
2020/12/25 00:27:02;;;;;;;4.73;4.00;;;3.10;99.90;;;;;;5056617;28;20036;-67
2020/12/25 00:29:28;;;;;;;5.30;3.50;;;3.10;99.90;;;;;;5057017;28;20413;-67
2020/12/25 00:31:53;;;;;;;5.70;2.80;;;3.10;99.90;;;;;;5054807;28;20278;-67
2020/12/25 00:34:19;;;;;;;3.87;2.90;;;3.10;99.90;;;;;;5056153;28;20036;-68
2020/12/25 00:36:46;;;;;;;5.23;2.67;;;3.10;99.90;;;;;;5054668;28;20028;-68
2020/12/25 00:39:13;;;;;;;5.28;3.30;;;3.20;99.90;;;;;;5054468;28;20115;-68
2020/12/25 00:41:45;;;;;;;3.13;2.65;;;3.20;99.90;;;;;;5056031;28;20082;-68
2020/12/25 00:44:12;;;;;;;4.85;2.90;;;3.20;99.90;;;;;;5055893;28;20425;-67
2020/12/25 00:46:38;;;;;;;3.33;2.60;;;3.30;99.90;;;;;;5054165;28;20039;-67
2020/12/25 00:49:05;;;;;;;6.78;3.72;;;3.30;99.90;;;;;;5055714;28;20017;-68
2020/12/25 00:51:30;;;;;;;3.67;2.80;;;3.20;99.90;;;;;;5054329;28;20032;-68
2020/12/25 00:53:56;;;;;;;4.30;3.07;;;3.30;99.90;;;;;;5055924;28;20022;-68
2020/12/25 00:56:22;;;;;;;4.67;3.43;;;3.30;99.90;;;;;;5054649;28;20029;-68
2020/12/25 00:58:47;;;;;;;3.63;2.60;;;3.30;99.90;;;;;;5054315;28;20112;-68
2020/12/25 01:01:14;;;;;;;4.53;2.93;;;3.40;99.90;;;;;;5054331;28;20025;-68
2020/12/25 01:03:41;;;;;;;;;;;3.50;99.90;;;;;;5054662;28;20391;-68
2020/12/25 01:06:14;;;;;;;4.70;3.13;;;3.40;99.90;;;;;;5055287;28;20285;-68
2020/12/25 01:08:41;;;;;;;5.00;3.00;;;3.40;99.90;;;;;;5055888;28;20035;-69
2020/12/25 01:11:07;;;;;;;6.05;3.92;;;3.40;99.90;;;;;;5054053;28;20048;-69
2020/12/25 01:13:34;;;;;;;;;;;3.40;99.90;;;;;;5057719;28;20087;-69
2020/12/25 01:16:07;;;;;;;3.85;2.90;;;3.40;99.90;;;;;;5057075;28;19913;-70
2020/12/25 01:18:33;;;;;;;4.38;2.75;;;3.50;99.90;;;;;;5057635;28;20026;-69
2020/12/25 01:20:59;;;;;;;3.95;3.00;;;3.60;99.90;;;;;;5057284;28;20040;-68
2020/12/25 01:23:25;;;;;;;6.30;3.57;;;3.70;99.90;;;;;;5056377;28;20051;-69
2020/12/25 01:25:51;;;;;;;6.05;4.13;;;3.60;99.90;;;;;;5056202;28;20021;-69
2020/12/25 01:28:17;;;;;;;4.70;3.10;;;3.50;99.90;;;;;;5055851;28;20390;-70
2020/12/25 01:30:43;;;;;;;9.90;5.18;;;3.50;99.90;;;;;;5053649;28;20017;-70
2020/12/25 01:33:08;;;;;;;5.17;3.60;;;3.50;99.90;;;;;;5055665;28;20033;-71
2020/12/25 01:35:38;;;;;;;3.77;2.93;;;3.50;99.90;;;;;;5056132;28;20056;-71
2020/12/25 01:38:05;;;;;;;5.93;4.03;;;3.60;99.90;;;;;;5059263;28;20021;-72
2020/12/25 01:40:31;;;;;;;4.75;3.80;;;3.60;99.90;;;;;;5056649;28;20537;-71
2020/12/25 01:43:17;;;;;;;5.30;3.88;;;3.60;99.90;;;;;;5058176;28;20111;-71
2020/12/25 01:45:50;;;;;;;3.50;3.00;;;3.70;99.90;;;;;;5058918;28;20025;-70
2020/12/25 01:48:16;;;;;;;4.20;3.33;;;3.60;99.90;;;;;;5055359;28;20108;-71
2020/12/25 01:50:42;;;;;;;5.72;3.53;;;3.70;99.90;;;;;;5053553;28;20064;-71
2020/12/25 01:53:10;;;;;;;4.63;3.63;;;3.70;99.90;;;;;;5053509;28;20032;-70
2020/12/25 01:55:37;;;;;;;4.30;3.15;;;3.70;99.90;;;;;;5053496;28;20023;-71
2020/12/25 01:58:03;;;;;;;4.15;3.50;;;3.70;99.90;;;;;;5054974;28;20025;-70
2020/12/25 02:00:30;;;;;;;5.32;4.00;;;3.60;99.90;;;;;;5055409;28;20104;-70
2020/12/25 02:02:57;;;;;;;5.32;3.40;;;3.60;99.90;;;;;;5056698;28;20438;-70
2020/12/25 02:05:23;;;;;;;5.20;3.80;;;3.60;99.90;;;;;;5055141;28;20025;-71
2020/12/25 02:07:49;;;;;;;4.90;3.90;;;3.70;99.90;;;;;;5055909;28;20456;-70
2020/12/25 02:10:16;;;;;;;4.57;3.47;;;3.70;99.90;;;;;;5054527;28;20021;-70
2020/12/25 02:12:43;;;;;;;4.32;3.35;;;3.80;99.90;;;;;;5058350;28;20021;-71
2020/12/25 02:15:09;;;;;;;5.78;3.70;;;3.90;99.90;;;;;;5054126;28;20078;-70
2020/12/25 02:17:34;;;;;;;5.22;4.00;;;3.90;99.90;;;;;;5052922;28;20033;-70
2020/12/25 02:20:03;;;;;;;4.85;3.92;;;3.80;99.90;;;;;;5056839;28;20136;-70
2020/12/25 02:22:29;;;;;;;4.55;3.65;;;3.80;99.90;;;;;;5052989;28;20067;-70
2020/12/25 02:24:55;;;;;;;4.00;3.47;;;3.80;99.90;;;;;;5055319;28;20436;-70
2020/12/25 02:27:21;;;;;;;5.77;4.23;;;3.80;99.90;;;;;;5054923;28;20115;-69
2020/12/25 02:29:46;;;;;;;4.53;3.37;;;3.80;99.90;;;;;;5054097;28;20474;-71
2020/12/25 02:32:12;;;;;;;5.77;3.70;;;3.80;99.90;;;;;;5052967;28;20021;-71
2020/12/25 02:34:38;;;;;;;4.93;3.93;;;3.80;99.90;;;;;;5052207;28;20070;-71
2020/12/25 02:37:03;;;;;;;5.50;3.80;;;3.80;99.90;;;;;;5053884;28;20263;-70
2020/12/25 02:39:29;;;;;;;5.20;3.87;;;3.90;99.90;;;;;;5053510;28;20098;-70
2020/12/25 02:41:55;;;;;;;5.53;3.93;;;3.90;99.90;;;;;;5053429;28;20551;-70
2020/12/25 02:44:20;;;;;;;4.83;3.67;;;3.90;99.90;;;;;;5052256;28;20029;-70
2020/12/25 02:46:47;;;;;;;6.23;3.83;;;3.90;99.90;;;;;;5053922;28;20032;-70
2020/12/25 02:49:12;;;;;;;6.28;4.18;;;3.90;99.90;;;;;;5053663;28;20017;-71
2020/12/25 02:51:38;;;;;;;4.77;4.03;;;3.90;99.90;;;;;;5053398;28;20378;-70
2020/12/25 02:54:03;;;;;;;5.97;4.37;;;3.90;99.90;;;;;;5052078;28;20290;-70
2020/12/25 02:56:29;;;;;;;4.90;4.00;;;3.90;99.90;;;;;;5051875;28;20047;-70
2020/12/25 02:58:55;;;;;;;6.83;4.63;;;3.90;99.90;;;;;;5054897;28;20025;-69
2020/12/25 03:01:20;;;;;;;6.80;5.10;;;4.00;99.90;;;;;;5054536;28;20021;-70
2020/12/25 03:03:46;;;;;;;6.10;4.70;;;3.90;99.90;;;;;;5053339;28;20021;-71
2020/12/25 03:06:11;;;;;;;6.30;4.57;;;3.90;99.90;;;;;;5053372;28;20028;-71
2020/12/25 03:08:37;;;;;;;6.70;4.80;;;3.90;99.90;;;;;;5053055;28;20025;-70
2020/12/25 03:11:04;;;;;;;8.27;5.72;;;4.10;99.90;;;;;;5052944;28;20017;-71
2020/12/25 03:13:31;;;;;;;7.40;5.38;;;4.00;99.90;;;;;;5051675;28;20025;-70
2020/12/25 03:15:56;;;;;;;;;;;4.00;99.90;;;;;;5051917;28;20021;-70
2020/12/25 03:18:22;;;;;;;9.18;6.13;;;4.00;99.90;;;;;;5053675;28;19991;-70
2020/12/25 03:20:48;;;;;;;8.27;6.20;;;4.10;99.90;;;;;;5051263;28;20032;-70
2020/12/25 03:23:14;;;;;;;9.50;5.73;;;4.00;99.90;;;;;;5052878;28;20032;-70
2020/12/25 03:25:40;;;;;;;8.20;6.40;;;4.10;99.90;;;;;;5051692;28;20033;-69
2020/12/25 03:28:06;;;;;;;10.40;6.70;;;4.10;99.90;;;;;;5051370;28;20124;-70
2020/12/25 03:30:32;;;;;;;9.50;6.07;;;4.00;99.90;;;;;;5052870;28;20032;-70
2020/12/25 03:32:57;;;;;;;10.47;7.37;;;4.00;99.90;;;;;;5053002;28;20262;-70
2020/12/25 03:35:23;;;;;;;11.37;7.30;;;4.00;99.90;;;;;;5051039;28;20263;-70
2020/12/25 03:37:49;;;;;;;11.85;7.85;;;4.00;99.90;;;;;;5053075;28;20033;-70
2020/12/25 03:40:15;;;;;;;12.27;7.32;;;4.00;99.90;;;;;;5051202;28;20037;-70
2020/12/25 03:42:41;;;;;;;10.47;7.40;;;4.00;99.90;;;;;;5052602;28;20031;-70
2020/12/25 03:45:06;;;;;;;13.33;8.83;;;4.00;99.90;;;;;;5052164;28;20021;-70
2020/12/25 03:47:32;;;;;;;12.77;7.60;;;4.00;99.90;;;;;;5052009;28;20064;-70
2020/12/25 03:49:58;;;;;;;26.63;19.40;;;4.00;99.90;;;;;;5052528;28;20100;-70
2020/12/25 03:52:23;;;;;;;13.00;6.73;;;4.00;99.90;;;;;;5052179;28;20029;-70
2020/12/25 03:54:49;;;;;;;9.77;6.53;;;4.10;99.90;;;;;;5052223;28;20456;-70
2020/12/25 03:57:15;;;;;;;9.20;5.80;;;4.20;99.90;;;;;;5050857;28;20319;-70
2020/12/25 03:59:41;;;;;;;9.88;6.18;;;4.20;99.90;;;;;;5052170;28;20362;-70
2020/12/25 04:02:06;;;;;;;11.80;7.23;;;4.10;99.90;;;;;;5052359;28;20029;-70
2020/12/25 04:04:32;;;;;;;10.90;7.00;;;4.10;99.90;;;;;;5052321;28;20025;-70
2020/12/25 04:06:58;;;;;;;10.23;6.93;;;4.10;99.90;;;;;;5052114;28;20025;-70
2020/12/25 04:09:23;;;;;;;14.57;7.37;;;4.10;99.90;;;;;;5052113;28;20025;-70
2020/12/25 04:11:49;;;;;;;10.18;6.90;;;4.10;99.90;;;;;;5051998;28;20079;-70
2020/12/25 04:14:16;;;;;;;11.70;7.28;;;4.10;99.90;;;;;;5050566;28;20482;-70
2020/12/25 04:16:42;;;;;;;12.73;8.15;;;4.10;99.90;;;;;;5051845;28;20532;-70
2020/12/25 04:19:08;;;;;;;12.77;7.63;;;4.10;99.90;;;;;;5051885;28;20033;-70
2020/12/25 04:21:33;;;;;;;11.20;6.40;;;4.10;99.90;;;;;;5051953;28;20059;-70
2020/12/25 04:23:59;;;;;;;10.73;7.05;;;4.10;99.90;;;;;;5050591;28;20041;-70
2020/12/25 04:26:25;;;;;;;9.33;6.30;;;4.10;99.90;;;;;;5050522;28;20056;-70
2020/12/25 04:28:50;;;;;;;9.63;6.67;;;4.20;99.90;;;;;;5051813;28;20083;-70
2020/12/25 04:31:16;;;;;;;12.00;7.63;;;4.20;99.90;;;;;;5050844;28;20036;-70
2020/12/25 04:33:41;;;;;;;13.17;7.33;;;4.20;99.90;;;;;;5051915;28;20053;-70
2020/12/25 04:36:07;;;;;;;13.83;7.30;;;4.20;99.90;;;;;;5051859;28;20434;-70
2020/12/25 04:38:33;;;;;;;13.67;8.13;;;4.10;99.90;;;;;;5050499;28;20056;-70
2020/12/25 04:40:59;;;;;;;12.17;7.37;;;4.30;99.90;;;;;;5050479;28;20156;-70
2020/12/25 04:43:25;;;;;;;12.85;8.27;;;4.30;99.90;;;;;;5050516;28;20017;-70
2020/12/25 04:45:52;;;;;;;;;;;4.30;99.90;;;;;;5051880;28;20029;-70
2020/12/25 04:48:18;;;;;;;11.55;7.60;;;4.30;99.90;;;;;;5055472;28;20258;-71
2020/12/25 04:50:44;;;;;;;11.75;7.63;;;4.40;99.90;;;;;;5054144;28;20032;-71
2020/12/25 04:53:09;;;;;;;14.50;7.73;;;4.40;99.90;;;;;;5056801;28;20033;-71
2020/12/25 04:55:35;;;;;;;13.57;8.07;;;4.40;99.90;;;;;;5055072;28;20025;-71
2020/12/25 04:58:00;;;;;;;14.77;8.20;;;4.40;99.90;;;;;;5055975;28;20037;-71
2020/12/25 05:00:27;;;;;;;14.03;7.37;;;4.40;99.90;;;;;;5054417;28;20083;-71
2020/12/25 05:02:53;;;;;;;;;;;4.30;99.90;;;;;;5055810;28;20060;-71
2020/12/25 05:05:29;;;;;;;14.40;7.63;;;4.30;99.90;;;;;;5055411;28;19909;-71
2020/12/25 05:07:59;;;;;;;11.02;7.07;;;4.30;99.90;;;;;;5055683;28;20430;-70
2020/12/25 05:10:25;;;;;;;10.65;7.13;;;4.40;99.90;;;;;;5055310;28;20419;-70
2020/12/25 05:12:51;;;;;;;12.55;7.60;;;4.30;99.90;;;;;;5053991;28;20044;-70
2020/12/25 05:15:17;;;;;;;14.05;6.97;;;4.40;99.90;;;;;;5055145;28;20540;-70
2020/12/25 05:17:43;;;;;;;13.93;6.63;;;4.40;99.90;;;;;;5055170;28;20029;-69
2020/12/25 05:20:09;;;;;;;12.70;6.80;;;4.40;99.90;;;;;;5054916;28;20081;-70
2020/12/25 05:22:36;;;;;;;11.48;6.93;;;4.40;99.90;;;;;;5053933;28;20128;-70
2020/12/25 05:25:07;;;;;;;10.25;6.82;;;4.50;99.90;;;;;;5053922;28;20032;-70
2020/12/25 05:27:33;;;;;;;10.20;6.03;;;4.40;99.90;;;;;;5054194;28;20082;-70
2020/12/25 05:30:05;;;;;;;10.68;6.43;;;4.60;99.90;;;;;;5054222;28;20025;-70
2020/12/25 05:32:33;;;;;;;10.75;5.82;;;4.80;99.90;;;;;;5055224;28;20029;-70
2020/12/25 05:34:59;;;;;;;11.80;5.90;;;4.90;99.90;;;;;;5053630;28;20025;-70
2020/12/25 05:37:36;;;;;;;9.70;5.65;;;4.80;99.90;;;;;;5055099;28;20044;-70
2020/12/25 05:40:04;;;;;;;8.65;5.13;;;4.90;99.90;;;;;;5054882;28;20029;-70
2020/12/25 05:42:43;;;;;;;11.13;6.05;;;4.90;99.90;;;;;;5053968;28;20025;-70
2020/12/25 05:45:09;;;;;;;12.48;6.07;;;4.80;99.90;;;;;;5053250;28;20500;-70
2020/12/25 05:47:35;;;;;;;10.57;5.63;;;4.60;99.90;;;;;;5054467;28;20033;-70
2020/12/25 05:50:01;;;;;;;11.45;6.07;;;4.60;99.90;;;;;;5054445;28;20195;-70
2020/12/25 05:52:26;;;;;;;12.82;6.22;;;4.60;99.90;;;;;;5054903;28;20378;-69
2020/12/25 05:54:55;;;;;;;10.67;5.70;;;4.60;99.90;;;;;;5054162;28;20107;-69
2020/12/25 05:57:21;;;;;;;12.70;5.82;;;4.70;99.90;;;;;;5052384;28;20040;-69
2020/12/25 05:59:47;;;;;;;15.73;6.13;;;4.70;99.90;;;;;;5053987;28;20405;-69
2020/12/25 06:02:15;;;;;;;9.10;5.40;;;4.60;99.90;;;;;;5054163;28;20087;-70
2020/12/25 06:04:41;;;;;;;10.43;5.38;;;4.60;99.90;;;;;;5053923;28;20104;-69
2020/12/25 06:07:10;;;;;;;11.95;5.35;;;4.60;99.90;;;;;;5053960;28;20112;-69
2020/12/25 06:09:44;;;;;;;10.38;5.45;;;4.60;99.90;;;;;;5053954;28;20036;-69
2020/12/25 06:12:14;;;;;;;14.82;5.38;;;4.50;99.90;;;;;;5052339;28;20025;-70
2020/12/25 06:14:39;;;;;;;11.82;5.68;;;4.50;99.90;;;;;;5053453;28;20387;-70
2020/12/25 06:17:37;;;;;;;10.60;5.50;;;4.50;99.90;;;;;;5054245;28;20040;-70
2020/12/25 06:20:05;;;;;;;18.10;5.65;;;4.60;99.90;;;;;;5049253;28;20041;-70
2020/12/25 06:22:38;;;;;;;10.95;5.22;;;4.70;99.90;;;;;;5053935;28;20504;-70
2020/12/25 06:25:08;;;;;;;8.63;5.47;;;4.60;99.90;;;;;;5053841;28;20024;-69
2020/12/25 06:27:34;;;;;;;11.30;5.53;;;4.50;99.90;;;;;;5053456;28;20028;-70
2020/12/25 06:30:02;;;;;;;10.80;5.33;;;4.60;99.90;;;;;;5052087;28;20021;-70
2020/12/25 06:32:29;;;;;;;13.52;5.60;;;4.50;99.90;;;;;;5053635;28;20079;-70
2020/12/25 06:35:01;;;;;;;10.73;5.40;;;4.60;99.90;;;;;;5052043;28;20025;-70
2020/12/25 06:37:28;;;;;;;10.27;5.32;;;4.50;99.90;;;;;;5053800;28;20025;-70
2020/12/25 06:39:57;;;;;;;11.18;5.40;;;4.50;99.90;;;;;;5053289;28;20374;-70
2020/12/25 06:42:34;;;;;;;11.40;5.70;;;4.50;99.90;;;;;;5053602;28;20021;-70
2020/12/25 06:45:04;;;;;;;;;;;4.50;99.90;;;;;;5054769;28;20100;-70
2020/12/25 06:47:33;;;;;;;8.88;5.50;;;4.50;99.90;;;;;;5053089;28;19909;-70
2020/12/25 06:50:16;;;;;;;7.13;5.18;;;4.70;99.90;;;;;;5052114;28;20039;-70
2020/12/25 06:52:56;;;;;;;8.05;5.05;;;4.70;99.90;;;;;;5053863;28;20013;-70
2020/12/25 06:55:23;;;;;;;10.50;6.32;;;4.60;99.90;;;;;;5053531;28;20116;-70
2020/12/25 06:57:54;;;;;;;;;;;4.60;99.90;;;;;;5053788;28;20363;-70
2020/12/25 07:00:23;;;;;;;10.90;4.78;;;4.60;99.90;;;;;;5052793;28;19905;-70
2020/12/25 07:02:49;;;;;;;7.80;4.57;;;4.70;99.90;;;;;;5052936;28;20063;-70
2020/12/25 07:05:15;;;;;;;11.60;5.10;;;4.60;99.90;;;;;;5052923;28;20025;-70
2020/12/25 07:07:40;;;;;;;11.95;4.93;;;4.60;99.90;;;;;;5051458;28;20028;-70
2020/12/25 07:10:11;;;;;;;13.80;4.83;;;4.50;99.90;;;;;;5051290;28;20362;-70
2020/12/25 07:12:37;;;;;;;9.05;6.05;;;4.60;99.90;;;;;;5052921;28;20025;-70
2020/12/25 07:15:04;;;;;;;8.55;5.00;;;4.50;99.90;;;;;;5052707;28;20025;-70
2020/12/25 07:17:30;;;;;;;8.55;5.35;;;4.60;99.90;;;;;;5051317;28;20131;-70
2020/12/25 07:19:56;;;;;;;13.57;5.35;;;4.50;99.90;;;;;;5051255;28;20083;-70
2020/12/25 07:22:22;;;;;;;12.63;5.00;;;4.50;99.90;;;;;;5051231;28;20028;-70
2020/12/25 07:24:48;;;;;;;9.63;5.40;;;4.50;99.90;;;;;;5052511;28;20032;-70
2020/12/25 07:27:14;;;;;;;9.07;5.10;;;4.50;99.90;;;;;;5052807;28;20044;-70
2020/12/25 07:29:41;;;;;;;;;;;4.50;99.90;;;;;;5053320;28;20102;-69
2020/12/25 07:32:11;;;;;;;11.90;5.78;;;4.50;99.90;;;;;;5052889;28;20037;-69
2020/12/25 07:34:38;;;;;;;11.70;5.50;;;4.50;99.90;;;;;;5052661;28;20108;-70
2020/12/25 07:37:06;;;;;;;11.57;5.70;;;4.60;99.90;;;;;;5056598;28;20060;-70
2020/12/25 07:39:32;;;;;;;10.27;5.35;;;4.50;99.90;;;;;;5062383;28;20025;-69
2020/12/25 07:41:57;;;;;;;10.83;6.30;;;4.70;99.90;;;;;;5062971;28;20040;-69
2020/12/25 07:44:24;;;;;;;7.43;5.33;;;4.80;99.90;;;;;;5062476;28;20021;-70
2020/12/25 07:46:50;;;;;;;11.60;5.70;;;4.90;99.90;;;;;;5061463;28;20025;-68
2020/12/25 07:49:18;;;;;;;10.40;6.47;;;4.90;99.90;;;;;;5062454;28;20391;-68
2020/12/25 07:51:46;;;;;;;9.07;5.95;;;4.80;99.90;;;;;;5061222;28;20500;-68
2020/12/25 07:54:14;;;;;;;17.02;8.52;;;4.70;99.90;;;;;;5062662;28;20032;-68
2020/12/25 07:56:40;;;;;;;8.20;5.55;;;4.70;99.90;;;;;;5062460;28;20025;-68
2020/12/25 07:59:06;;;;;;;9.10;5.53;;;4.70;99.90;;;;;;5062757;28;20044;-68
2020/12/25 08:01:33;;;;;;;10.50;6.07;;;4.80;99.90;;;;;;5062924;28;20043;-68
2020/12/25 08:04:01;;;;;;;7.75;5.22;;;4.90;99.90;;;;;;5058363;28;20032;-68
2020/12/25 08:06:29;;;;;;;9.30;6.40;;;4.90;99.90;;;;;;5056333;28;20033;-68
2020/12/25 08:08:58;;;;;;;10.07;5.65;;;4.90;99.90;;;;;;5056021;28;20411;-69
2020/12/25 08:11:25;;;;;;;8.35;5.18;;;4.90;99.90;;;;;;5056130;28;20025;-69
2020/12/25 08:13:54;;;;;;;12.90;6.07;;;5.00;99.90;;;;;;5055653;28;20021;-68
2020/12/25 08:16:20;;;;;;;10.68;6.18;;;5.00;99.90;;;;;;5056197;28;20028;-69
2020/12/25 08:18:50;;;;;;;7.78;5.38;;;5.00;99.90;;;;;;5055323;28;20064;-69
2020/12/25 08:21:17;;;;;;;11.23;6.28;;;5.00;99.90;;;;;;5058577;28;20044;-68
2020/12/25 08:23:43;;;;;;;8.68;6.15;;;5.00;99.90;;;;;;5058303;28;20021;-68
2020/12/25 08:26:14;;;;;;;7.97;5.27;;;4.90;99.90;;;;;;5058714;28;20048;-68
2020/12/25 08:28:46;;;;;;;7.82;5.65;;;5.00;99.90;;;;;;5057334;28;20068;-67
2020/12/25 08:31:15;;;;;;;8.55;5.60;;;5.00;99.90;;;;;;5057943;28;20033;-68
2020/12/25 08:33:53;;;;;;;7.88;5.13;;;4.90;99.90;;;;;;5058373;28;20021;-68
2020/12/25 08:36:25;;;;;;;8.32;4.85;;;5.00;99.90;;;;;;5056951;28;20033;-68
2020/12/25 08:38:53;;;;;;;11.95;5.82;;;5.10;99.90;;;;;;5058370;28;20057;-68
2020/12/25 08:41:24;;;;;;;10.43;5.65;;;5.00;99.90;;;;;;5058246;28;20041;-69
2020/12/25 08:43:50;;;;;;;9.63;6.35;;;5.00;99.90;;;;;;5058019;28;20545;-68
2020/12/25 08:46:22;;;;;;;7.03;5.27;;;5.10;99.90;;;;;;5058574;28;20052;-68
2020/12/25 08:48:50;;;;;;;8.80;4.88;;;5.10;99.90;;;;;;5061696;28;20033;-67
2020/12/25 08:51:17;;;;;;;8.20;5.07;;;5.10;99.90;;;;;;5061628;28;20025;-68
2020/12/25 08:53:51;;;;;;;8.32;5.00;;;5.10;99.90;;;;;;5062185;28;20142;-68
2020/12/25 08:56:20;;;;;;;9.93;5.90;;;5.00;99.90;;;;;;5062241;28;20021;-68
2020/12/25 08:59:06;;;;;;;8.23;4.60;;;5.10;99.90;;;;;;5064050;28;20497;-68
2020/12/25 09:01:36;;;;;;;9.73;5.45;;;5.10;99.90;;;;;;5057325;28;20031;-67
2020/12/25 09:04:03;;;;;;;7.03;4.70;;;5.10;99.90;;;;;;5058466;28;20092;-68
2020/12/25 09:06:31;;;;;;;8.52;5.18;;;5.20;99.90;;;;;;5060851;28;20089;-68
2020/12/25 09:08:57;;;;;;;7.47;4.82;;;5.20;99.90;;;;;;5060675;28;20359;-69
2020/12/25 09:11:25;;;;;;;5.97;4.33;;;5.20;99.90;;;;;;5057040;28;20024;-70
2020/12/25 09:13:51;;;;;;;6.28;4.10;;;5.20;99.90;;;;;;5058785;28;20806;-69
2020/12/25 09:16:18;;;;;;;7.07;4.60;;;5.20;99.90;;;;;;5054978;28;20033;-68
2020/12/25 09:18:44;;;;;;;7.22;4.85;;;5.20;99.90;;;;;;5056247;28;20024;-68
2020/12/25 09:21:13;;;;;;;6.40;4.28;;;5.30;99.90;;;;;;5057555;28;20036;-69
2020/12/25 09:23:39;;;;;;;7.03;3.85;;;5.30;99.90;;;;;;5056332;28;20132;-69
2020/12/25 09:26:06;;;;;;;7.50;4.28;;;5.30;99.90;;;;;;5055252;28;20025;-68
2020/12/25 09:28:32;;;;;;;9.27;4.35;;;5.30;99.90;;;;;;5055007;28;20110;-69
2020/12/25 09:30:58;;;;;;;6.85;4.30;;;5.40;99.90;;;;;;5054278;28;20025;-69
2020/12/25 09:33:25;;;;;;;6.15;4.07;;;5.40;99.90;;;;;;5053966;28;20063;-68
2020/12/25 09:35:51;;;;;;;6.90;4.10;;;5.40;99.90;;;;;;5055702;28;20021;-69
2020/12/25 09:38:18;;;;;;;8.02;4.00;;;5.40;99.90;;;;;;5055611;28;20075;-69
2020/12/25 09:40:44;;;;;;;6.07;4.20;;;5.40;99.90;;;;;;5055284;28;20074;-69
2020/12/25 09:43:10;;;;;;;9.48;5.43;;;5.40;99.90;;;;;;5055457;28;20029;-69
2020/12/25 09:45:35;;;;;;;6.45;4.15;;;5.40;99.90;;;;;;5055095;28;20426;-68
2020/12/25 09:48:01;;;;;;;5.65;3.60;;;5.50;99.90;;;;;;5056694;28;20478;-68
2020/12/25 09:50:27;;;;;;;6.30;3.45;;;5.50;99.90;;;;;;5055902;28;20021;-68
2020/12/25 09:52:53;;;;;;;6.38;4.07;;;5.60;99.90;;;;;;5056131;28;20115;-69
2020/12/25 09:55:19;;;;;;;6.67;4.30;;;5.70;99.90;;;;;;5059109;28;20021;-69
2020/12/25 09:57:44;;;;;;;6.85;3.92;;;5.90;99.90;;;;;;5060227;28;20021;-69
2020/12/25 10:00:12;;;;;;;6.13;3.50;;;6.00;99.90;;;;;;5056961;28;20075;-70
2020/12/25 10:02:38;;;;;;;5.57;3.53;;;6.00;99.90;;;;;;5059032;28;20059;-68
2020/12/25 10:05:05;;;;;;;7.05;3.75;;;6.00;99.90;;;;;;5057418;28;20025;-69
2020/12/25 10:07:31;;;;;;;6.75;3.50;;;6.00;99.90;;;;;;5058012;28;20060;-69
2020/12/25 10:09:56;;;;;;;8.40;3.90;;;6.10;99.90;;;;;;5057956;28;20021;-69
2020/12/25 10:12:23;;;;;;;4.17;3.10;;;6.10;99.90;;;;;;5056679;28;20021;-69
2020/12/25 10:14:48;;;;;;;4.68;3.13;;;6.00;99.90;;;;;;5058451;28;20032;-69
2020/12/25 10:17:14;;;;;;;6.20;3.08;;;5.90;99.90;;;;;;5057783;28;20038;-69
2020/12/25 10:19:40;;;;;;;5.57;2.80;;;5.90;99.90;;;;;;5057036;28;20029;-68
2020/12/25 10:22:05;;;;;;;6.97;3.30;;;5.70;99.90;;;;;;5055629;28;20275;-68
2020/12/25 10:24:31;;;;;;;6.53;3.30;;;5.70;99.90;;;;;;5057501;28;20025;-68
2020/12/25 10:26:57;;;;;;;5.97;3.10;;;5.70;99.90;;;;;;5056298;28;20025;-68
2020/12/25 10:29:22;;;;;;;6.23;4.20;;;5.60;99.90;;;;;;5055030;28;20470;-68
2020/12/25 10:31:49;;;;;;;5.70;3.47;;;5.70;99.90;;;;;;5055815;28;20030;-69
2020/12/25 10:34:15;;;;;;;;;;;5.70;99.90;;;;;;5055428;28;20028;-69
2020/12/25 10:36:41;;;;;;;8.10;3.20;;;5.70;99.90;;;;;;5057281;28;20365;-68
2020/12/25 10:39:07;;;;;;;6.68;3.47;;;5.80;99.90;;;;;;5054394;28;20106;-69
2020/12/25 10:41:33;;;;;;;7.47;3.40;;;5.90;99.90;;;;;;5054013;28;20057;-69
2020/12/25 10:43:59;;;;;;;6.63;3.10;;;5.90;99.90;;;;;;5053830;28;20025;-69
2020/12/25 10:46:25;;;;;;;7.00;3.63;;;6.00;99.90;;;;;;5055160;28;20053;-68
2020/12/25 10:48:51;;;;;;;6.25;3.30;;;6.20;99.90;;;;;;5053804;28;20021;-68
2020/12/25 10:51:17;;;;;;;5.30;2.83;;;6.20;99.90;;;;;;5056798;28;20087;-68
2020/12/25 10:53:42;;;;;;;6.10;3.40;;;6.20;99.90;;;;;;5055304;28;20028;-69
2020/12/25 10:56:08;;;;;;;5.20;3.20;;;6.30;99.90;;;;;;5055279;28;20021;-69
2020/12/25 10:58:34;;;;;;;4.93;3.20;;;6.20;99.90;;;;;;5051874;28;20032;-69
2020/12/25 11:01:00;;;;;;;6.63;3.80;;;6.20;99.90;;;;;;5051600;28;20076;-68
2020/12/25 11:03:25;;;;;;;5.88;3.17;;;6.20;99.90;;;;;;5053030;28;20032;-69
2020/12/25 11:05:51;;;;;;;4.00;2.90;;;6.10;99.90;;;;;;5053143;28;20033;-68
2020/12/25 11:08:17;;;;;;;5.27;3.20;;;6.10;99.90;;;;;;5051791;28;20020;-65
2020/12/25 11:10:44;;;;;;;5.27;3.00;;;6.20;99.90;;;;;;5051528;28;20044;-63
2020/12/25 11:13:10;;;;;;;5.05;3.15;;;6.20;99.90;;;;;;5052972;28;20032;-68
2020/12/25 11:15:38;;;;;;;4.77;2.90;;;6.20;99.90;;;;;;5052860;28;20025;-70
2020/12/25 11:18:04;;;;;;;3.80;2.97;;;6.40;99.90;;;;;;5051323;28;20321;-68
2020/12/25 11:20:29;;;;;;;5.90;3.40;;;6.40;99.90;;;;;;5052750;28;20044;-68
2020/12/25 11:22:55;;;;;;;6.57;2.90;;;6.50;99.90;;;;;;5052937;28;20084;-68
2020/12/25 11:25:20;;;;;;;5.43;3.27;;;6.50;99.90;;;;;;5053609;28;20029;-68
2020/12/25 11:27:46;;;;;;;6.30;3.17;;;6.50;99.90;;;;;;5053054;28;20131;-68
2020/12/25 11:30:11;;;;;;;5.07;3.07;;;6.50;99.90;;;;;;5052782;28;20028;-69
2020/12/25 11:32:37;;;;;;;7.83;3.60;;;6.50;99.90;;;;;;5052712;28;20079;-69
2020/12/25 11:35:04;;;;;;;5.60;3.40;;;6.40;99.90;;;;;;5052785;28;20048;-69
2020/12/25 11:37:29;;;;;;;;;;;6.30;99.90;;;;;;5051912;28;20036;-69
2020/12/25 11:39:55;;;;;;;4.47;2.97;;;6.30;99.90;;;;;;5052792;28;20324;-69
2020/12/25 11:42:21;;;;;;;5.53;3.00;;;6.30;99.90;;;;;;5053183;28;20029;-69
2020/12/25 11:44:47;;;;;;;6.67;3.67;;;6.20;99.90;;;;;;5053097;28;20025;-70
2020/12/25 11:47:12;;;;;;;7.63;4.93;;;6.20;99.90;;;;;;5054690;28;20025;-70
2020/12/25 11:49:38;;;;;;;6.53;3.33;;;6.20;99.90;;;;;;5055901;28;20091;-71
2020/12/25 11:52:04;;;;;;;4.77;3.23;;;6.20;99.90;;;;;;5057537;28;20025;-72
2020/12/25 11:54:30;;;;;;;5.80;3.37;;;6.10;99.90;;;;;;5060657;28;20446;-70
2020/12/25 11:56:55;;;;;;;5.30;3.28;;;6.00;99.90;;;;;;5061584;28;20048;-70
2020/12/25 11:59:21;;;;;;;4.60;3.00;;;5.90;99.90;;;;;;5060900;28;20040;-70
2020/12/25 12:01:47;;;;;;;4.97;3.20;;;5.90;99.90;;;;;;5061655;28;20477;-70
2020/12/25 12:04:13;;;;;;;5.07;3.15;;;5.80;99.90;;;;;;5059826;28;20033;-70
2020/12/25 12:06:38;;;;;;;9.27;3.30;;;5.80;99.90;;;;;;5058688;28;20025;-70
2020/12/25 12:09:04;;;;;;;5.77;2.80;;;5.80;99.90;;;;;;5058957;28;20268;-71
2020/12/25 12:11:30;;;;;;;4.80;2.60;;;5.90;99.90;;;;;;5058321;28;20466;-71
2020/12/25 12:13:56;;;;;;;5.77;2.77;;;5.90;99.90;;;;;;5059035;28;20109;-71
2020/12/25 12:16:23;;;;;;;4.57;2.88;;;5.90;99.90;;;;;;5059070;28;20363;-71
2020/12/25 12:18:50;;;;;;;4.13;2.80;;;5.90;99.90;;;;;;5059193;28;20104;-72
2020/12/25 12:21:17;;;;;;;3.58;2.30;;;5.80;99.90;;;;;;5066148;28;20029;-71
2020/12/25 12:23:42;;;;;;;4.72;2.70;;;5.90;99.90;;;;;;5072964;28;20029;-71
2020/12/25 12:26:10;;;;;;;5.23;2.53;;;5.80;99.90;;;;;;5074244;28;20036;-70
2020/12/25 12:28:35;;;;;;;5.47;2.63;;;5.70;99.90;;;;;;5062870;28;20025;-70
2020/12/25 12:31:02;;;;;;;3.47;2.23;;;5.50;99.90;;;;;;5060371;28;20066;-70
2020/12/25 12:33:27;;;;;;;12.27;5.00;;;5.40;99.90;;;;;;5059885;28;20468;-69
2020/12/25 12:35:53;;;;;;;5.07;2.43;;;5.30;99.90;;;;;;5059163;28;20033;-70
2020/12/25 12:38:19;;;;;;;5.73;3.00;;;5.40;99.90;;;;;;5061563;28;20569;-70
2020/12/25 12:40:45;;;;;;;3.92;2.63;;;5.50;99.90;;;;;;5061983;28;20029;-70
2020/12/25 12:43:10;;;;;;;3.10;2.40;;;5.50;99.90;;;;;;5060432;28;20060;-70
2020/12/25 12:45:36;;;;;;;3.93;2.50;;;5.60;99.90;;;;;;5063600;28;20035;-71
2020/12/25 12:48:02;;;;;;;8.03;2.60;;;5.80;99.90;;;;;;5061692;28;20043;-70
2020/12/25 12:50:27;;;;;;;3.47;2.27;;;5.80;99.90;;;;;;5060426;28;20048;-70
2020/12/25 12:52:53;;;;;;;4.87;2.20;;;5.80;99.90;;;;;;5061960;28;20053;-70
2020/12/25 12:55:19;;;;;;;2.87;2.00;;;5.90;99.90;;;;;;5059886;28;20029;-70